sensor_id;sensor_type;location;lat;lon;timestamp;P1;durP1;ratioP1;P2;durP2;ratioP2
59127;SDS011;44912;52.754;5.994;2024-02-15T00:00:27;31.77;;;14.57;;
59127;SDS011;44912;52.754;5.994;2024-02-15T00:02:53;30.42;;;14.07;;
59127;SDS011;44912;52.754;5.994;2024-02-15T00:05:19;30.48;;;13.90;;
59127;SDS011;44912;52.754;5.994;2024-02-15T00:07:44;27.50;;;12.82;;
59127;SDS011;44912;52.754;5.994;2024-02-15T00:10:13;24.48;;;12.90;;
59127;SDS011;44912;52.754;5.994;2024-02-15T00:12:39;29.00;;;13.18;;
59127;SDS011;44912;52.754;5.994;2024-02-15T00:15:05;32.03;;;12.70;;
59127;SDS011;44912;52.754;5.994;2024-02-15T00:17:31;25.30;;;12.20;;
59127;SDS011;44912;52.754;5.994;2024-02-15T00:19:57;30.50;;;13.20;;
59127;SDS011;44912;52.754;5.994;2024-02-15T00:22:23;23.13;;;10.63;;
59127;SDS011;44912;52.754;5.994;2024-02-15T00:27:20;24.05;;;10.55;;
59127;SDS011;44912;52.754;5.994;2024-02-15T00:29:46;22.30;;;10.73;;
59127;SDS011;44912;52.754;5.994;2024-02-15T00:32:11;26.15;;;9.40;;
59127;SDS011;44912;52.754;5.994;2024-02-15T00:34:37;26.10;;;10.52;;
59127;SDS011;44912;52.754;5.994;2024-02-15T00:37:06;24.95;;;9.10;;
59127;SDS011;44912;52.754;5.994;2024-02-15T00:39:31;21.10;;;9.50;;
59127;SDS011;44912;52.754;5.994;2024-02-15T00:41:57;22.65;;;9.63;;
59127;SDS011;44912;52.754;5.994;2024-02-15T00:44:25;25.67;;;9.35;;
59127;SDS011;44912;52.754;5.994;2024-02-15T00:46:51;21.45;;;9.02;;
59127;SDS011;44912;52.754;5.994;2024-02-15T00:49:16;26.33;;;9.55;;
59127;SDS011;44912;52.754;5.994;2024-02-15T00:51:45;22.52;;;8.55;;
59127;SDS011;44912;52.754;5.994;2024-02-15T00:54:11;24.63;;;8.88;;
59127;SDS011;44912;52.754;5.994;2024-02-15T00:56:37;23.75;;;9.43;;
59127;SDS011;44912;52.754;5.994;2024-02-15T00:59:03;29.60;;;10.55;;
59127;SDS011;44912;52.754;5.994;2024-02-15T01:01:30;27.58;;;9.50;;
59127;SDS011;44912;52.754;5.994;2024-02-15T01:03:56;23.92;;;9.95;;
59127;SDS011;44912;52.754;5.994;2024-02-15T01:06:21;24.98;;;10.07;;
59127;SDS011;44912;52.754;5.994;2024-02-15T01:08:47;23.77;;;9.00;;
59127;SDS011;44912;52.754;5.994;2024-02-15T01:11:13;26.67;;;9.65;;
59127;SDS011;44912;52.754;5.994;2024-02-15T01:13:38;26.70;;;7.90;;
59127;SDS011;44912;52.754;5.994;2024-02-15T01:16:05;22.02;;;7.57;;
59127;SDS011;44912;52.754;5.994;2024-02-15T01:18:32;25.10;;;7.63;;
59127;SDS011;44912;52.754;5.994;2024-02-15T01:20:57;23.95;;;7.68;;
59127;SDS011;44912;52.754;5.994;2024-02-15T01:23:23;21.13;;;7.70;;
59127;SDS011;44912;52.754;5.994;2024-02-15T01:25:49;22.58;;;7.10;;
59127;SDS011;44912;52.754;5.994;2024-02-15T01:28:15;23.92;;;7.53;;
59127;SDS011;44912;52.754;5.994;2024-02-15T01:30:40;20.10;;;6.47;;
59127;SDS011;44912;52.754;5.994;2024-02-15T01:33:09;17.35;;;6.28;;
59127;SDS011;44912;52.754;5.994;2024-02-15T01:35:36;20.52;;;6.47;;
59127;SDS011;44912;52.754;5.994;2024-02-15T01:38:02;16.20;;;6.00;;
59127;SDS011;44912;52.754;5.994;2024-02-15T01:40:27;23.70;;;6.57;;
59127;SDS011;44912;52.754;5.994;2024-02-15T01:42:53;19.25;;;5.93;;
59127;SDS011;44912;52.754;5.994;2024-02-15T01:45:20;24.85;;;5.80;;
59127;SDS011;44912;52.754;5.994;2024-02-15T01:47:47;22.58;;;6.07;;
59127;SDS011;44912;52.754;5.994;2024-02-15T01:50:14;17.75;;;5.80;;
59127;SDS011;44912;52.754;5.994;2024-02-15T01:52:41;19.00;;;6.45;;
59127;SDS011;44912;52.754;5.994;2024-02-15T01:55:12;23.20;;;7.85;;
59127;SDS011;44912;52.754;5.994;2024-02-15T01:57:40;25.38;;;7.10;;
59127;SDS011;44912;52.754;5.994;2024-02-15T02:00:09;21.92;;;7.38;;
59127;SDS011;44912;52.754;5.994;2024-02-15T02:02:35;20.73;;;8.48;;
59127;SDS011;44912;52.754;5.994;2024-02-15T02:05:06;24.77;;;7.57;;
59127;SDS011;44912;52.754;5.994;2024-02-15T02:07:32;24.42;;;7.85;;
59127;SDS011;44912;52.754;5.994;2024-02-15T02:09:58;24.00;;;8.40;;
59127;SDS011;44912;52.754;5.994;2024-02-15T02:12:24;21.60;;;7.78;;
59127;SDS011;44912;52.754;5.994;2024-02-15T02:14:52;22.17;;;7.22;;
59127;SDS011;44912;52.754;5.994;2024-02-15T02:17:19;27.77;;;7.90;;
59127;SDS011;44912;52.754;5.994;2024-02-15T02:19:45;23.80;;;7.60;;
59127;SDS011;44912;52.754;5.994;2024-02-15T02:22:11;27.30;;;7.70;;
59127;SDS011;44912;52.754;5.994;2024-02-15T02:24:43;25.30;;;8.13;;
59127;SDS011;44912;52.754;5.994;2024-02-15T02:27:31;25.80;;;8.00;;
59127;SDS011;44912;52.754;5.994;2024-02-15T02:29:58;29.80;;;10.63;;
59127;SDS011;44912;52.754;5.994;2024-02-15T02:32:24;26.63;;;9.52;;
59127;SDS011;44912;52.754;5.994;2024-02-15T02:34:53;30.45;;;10.00;;
59127;SDS011;44912;52.754;5.994;2024-02-15T02:37:25;23.98;;;10.20;;
59127;SDS011;44912;52.754;5.994;2024-02-15T02:39:51;24.67;;;11.07;;
59127;SDS011;44912;52.754;5.994;2024-02-15T02:42:17;25.05;;;11.45;;
59127;SDS011;44912;52.754;5.994;2024-02-15T02:44:43;24.38;;;11.98;;
59127;SDS011;44912;52.754;5.994;2024-02-15T02:47:09;23.08;;;11.52;;
59127;SDS011;44912;52.754;5.994;2024-02-15T02:49:35;23.20;;;12.18;;
59127;SDS011;44912;52.754;5.994;2024-02-15T02:52:01;27.77;;;11.85;;
59127;SDS011;44912;52.754;5.994;2024-02-15T02:54:28;25.60;;;11.45;;
59127;SDS011;44912;52.754;5.994;2024-02-15T02:56:54;27.30;;;11.77;;
59127;SDS011;44912;52.754;5.994;2024-02-15T02:59:20;28.25;;;12.20;;
59127;SDS011;44912;52.754;5.994;2024-02-15T03:01:46;24.88;;;12.00;;
59127;SDS011;44912;52.754;5.994;2024-02-15T03:04:14;22.42;;;11.52;;
59127;SDS011;44912;52.754;5.994;2024-02-15T03:06:42;23.13;;;12.43;;
59127;SDS011;44912;52.754;5.994;2024-02-15T03:09:11;22.90;;;11.95;;
59127;SDS011;44912;52.754;5.994;2024-02-15T03:11:40;22.33;;;11.40;;
59127;SDS011;44912;52.754;5.994;2024-02-15T03:14:05;27.23;;;11.88;;
59127;SDS011;44912;52.754;5.994;2024-02-15T03:16:31;23.63;;;11.93;;
59127;SDS011;44912;52.754;5.994;2024-02-15T03:18:57;28.13;;;12.18;;
59127;SDS011;44912;52.754;5.994;2024-02-15T03:21:23;30.00;;;13.52;;
59127;SDS011;44912;52.754;5.994;2024-02-15T03:23:49;29.83;;;12.55;;
59127;SDS011;44912;52.754;5.994;2024-02-15T03:26:15;24.55;;;12.95;;
59127;SDS011;44912;52.754;5.994;2024-02-15T03:28:40;26.05;;;13.45;;
59127;SDS011;44912;52.754;5.994;2024-02-15T03:31:07;26.90;;;13.85;;
59127;SDS011;44912;52.754;5.994;2024-02-15T03:33:33;29.80;;;14.30;;
59127;SDS011;44912;52.754;5.994;2024-02-15T03:36:00;26.30;;;14.63;;
59127;SDS011;44912;52.754;5.994;2024-02-15T03:38:26;29.75;;;14.65;;
59127;SDS011;44912;52.754;5.994;2024-02-15T03:40:54;23.35;;;14.27;;
59127;SDS011;44912;52.754;5.994;2024-02-15T03:43:20;25.02;;;13.98;;
59127;SDS011;44912;52.754;5.994;2024-02-15T03:45:48;26.42;;;13.75;;
59127;SDS011;44912;52.754;5.994;2024-02-15T03:48:14;27.08;;;14.73;;
59127;SDS011;44912;52.754;5.994;2024-02-15T03:50:40;25.98;;;14.82;;
59127;SDS011;44912;52.754;5.994;2024-02-15T03:53:06;27.88;;;15.50;;
59127;SDS011;44912;52.754;5.994;2024-02-15T03:55:34;27.50;;;14.10;;
59127;SDS011;44912;52.754;5.994;2024-02-15T03:58:01;23.80;;;14.60;;
59127;SDS011;44912;52.754;5.994;2024-02-15T04:00:27;27.63;;;15.98;;
59127;SDS011;44912;52.754;5.994;2024-02-15T04:02:52;24.08;;;15.10;;
59127;SDS011;44912;52.754;5.994;2024-02-15T04:05:18;28.63;;;15.10;;
59127;SDS011;44912;52.754;5.994;2024-02-15T04:07:46;29.38;;;16.38;;
59127;SDS011;44912;52.754;5.994;2024-02-15T04:10:13;29.02;;;16.65;;
59127;SDS011;44912;52.754;5.994;2024-02-15T04:12:38;27.35;;;16.52;;
59127;SDS011;44912;52.754;5.994;2024-02-15T04:15:07;32.92;;;17.15;;
59127;SDS011;44912;52.754;5.994;2024-02-15T04:17:37;29.45;;;17.15;;
59127;SDS011;44912;52.754;5.994;2024-02-15T04:20:03;33.08;;;17.70;;
59127;SDS011;44912;52.754;5.994;2024-02-15T04:22:31;33.42;;;16.98;;
59127;SDS011;44912;52.754;5.994;2024-02-15T04:25:01;34.60;;;18.38;;
59127;SDS011;44912;52.754;5.994;2024-02-15T04:27:28;30.10;;;18.30;;
59127;SDS011;44912;52.754;5.994;2024-02-15T04:29:54;34.08;;;18.58;;
59127;SDS011;44912;52.754;5.994;2024-02-15T04:32:20;29.52;;;18.08;;
59127;SDS011;44912;52.754;5.994;2024-02-15T04:34:46;30.05;;;18.83;;
59127;SDS011;44912;52.754;5.994;2024-02-15T04:37:12;29.42;;;18.52;;
59127;SDS011;44912;52.754;5.994;2024-02-15T04:39:38;35.00;;;20.48;;
59127;SDS011;44912;52.754;5.994;2024-02-15T04:42:04;30.58;;;18.80;;
59127;SDS011;44912;52.754;5.994;2024-02-15T04:44:38;31.65;;;20.30;;
59127;SDS011;44912;52.754;5.994;2024-02-15T04:47:04;35.42;;;20.33;;
59127;SDS011;44912;52.754;5.994;2024-02-15T04:49:30;32.03;;;20.35;;
59127;SDS011;44912;52.754;5.994;2024-02-15T04:51:56;39.30;;;20.42;;
59127;SDS011;44912;52.754;5.994;2024-02-15T04:54:22;35.30;;;21.00;;
59127;SDS011;44912;52.754;5.994;2024-02-15T04:56:48;34.55;;;20.70;;
59127;SDS011;44912;52.754;5.994;2024-02-15T04:59:17;32.45;;;20.77;;
59127;SDS011;44912;52.754;5.994;2024-02-15T05:01:44;34.45;;;21.38;;
59127;SDS011;44912;52.754;5.994;2024-02-15T05:04:10;33.70;;;20.60;;
59127;SDS011;44912;52.754;5.994;2024-02-15T05:06:37;32.75;;;20.60;;
59127;SDS011;44912;52.754;5.994;2024-02-15T05:09:03;32.30;;;19.95;;
59127;SDS011;44912;52.754;5.994;2024-02-15T05:11:32;33.75;;;20.33;;
59127;SDS011;44912;52.754;5.994;2024-02-15T05:14:01;29.75;;;19.73;;
59127;SDS011;44912;52.754;5.994;2024-02-15T05:16:30;32.50;;;19.83;;
59127;SDS011;44912;52.754;5.994;2024-02-15T05:18:56;32.38;;;19.45;;
59127;SDS011;44912;52.754;5.994;2024-02-15T05:21:22;31.10;;;20.70;;
59127;SDS011;44912;52.754;5.994;2024-02-15T05:23:48;31.15;;;19.70;;
59127;SDS011;44912;52.754;5.994;2024-02-15T05:26:13;32.28;;;20.15;;
59127;SDS011;44912;52.754;5.994;2024-02-15T05:28:41;30.73;;;19.08;;
59127;SDS011;44912;52.754;5.994;2024-02-15T05:31:18;28.67;;;18.35;;
59127;SDS011;44912;52.754;5.994;2024-02-15T05:33:52;28.77;;;18.98;;
59127;SDS011;44912;52.754;5.994;2024-02-15T05:36:19;32.05;;;19.20;;
59127;SDS011;44912;52.754;5.994;2024-02-15T05:38:47;31.48;;;19.27;;
59127;SDS011;44912;52.754;5.994;2024-02-15T05:41:14;32.70;;;18.85;;
59127;SDS011;44912;52.754;5.994;2024-02-15T05:43:41;27.38;;;19.38;;
59127;SDS011;44912;52.754;5.994;2024-02-15T05:46:07;28.58;;;18.42;;
59127;SDS011;44912;52.754;5.994;2024-02-15T05:48:37;28.33;;;18.05;;
59127;SDS011;44912;52.754;5.994;2024-02-15T05:51:03;28.70;;;18.65;;
59127;SDS011;44912;52.754;5.994;2024-02-15T05:53:30;28.67;;;17.17;;
59127;SDS011;44912;52.754;5.994;2024-02-15T05:55:58;29.98;;;16.80;;
59127;SDS011;44912;52.754;5.994;2024-02-15T05:58:24;29.02;;;16.35;;
59127;SDS011;44912;52.754;5.994;2024-02-15T06:00:50;28.15;;;17.05;;
59127;SDS011;44912;52.754;5.994;2024-02-15T06:03:16;27.05;;;16.35;;
59127;SDS011;44912;52.754;5.994;2024-02-15T06:05:42;30.40;;;16.80;;
59127;SDS011;44912;52.754;5.994;2024-02-15T06:08:09;24.83;;;15.77;;
59127;SDS011;44912;52.754;5.994;2024-02-15T06:10:38;25.25;;;16.05;;
59127;SDS011;44912;52.754;5.994;2024-02-15T06:13:05;30.15;;;16.52;;
59127;SDS011;44912;52.754;5.994;2024-02-15T06:15:31;26.40;;;15.27;;
59127;SDS011;44912;52.754;5.994;2024-02-15T06:17:57;28.83;;;15.23;;
59127;SDS011;44912;52.754;5.994;2024-02-15T06:20:23;26.33;;;15.02;;
59127;SDS011;44912;52.754;5.994;2024-02-15T06:22:50;25.35;;;15.25;;
59127;SDS011;44912;52.754;5.994;2024-02-15T06:25:17;31.92;;;15.52;;
59127;SDS011;44912;52.754;5.994;2024-02-15T06:27:46;29.17;;;15.05;;
59127;SDS011;44912;52.754;5.994;2024-02-15T06:30:12;27.45;;;15.15;;
59127;SDS011;44912;52.754;5.994;2024-02-15T06:32:56;25.67;;;15.07;;
59127;SDS011;44912;52.754;5.994;2024-02-15T06:35:41;24.77;;;15.85;;
59127;SDS011;44912;52.754;5.994;2024-02-15T06:38:26;26.85;;;15.50;;
59127;SDS011;44912;52.754;5.994;2024-02-15T06:41:10;23.58;;;14.70;;
59127;SDS011;44912;52.754;5.994;2024-02-15T06:43:36;24.20;;;15.23;;
59127;SDS011;44912;52.754;5.994;2024-02-15T06:46:02;30.83;;;15.88;;
59127;SDS011;44912;52.754;5.994;2024-02-15T06:48:31;28.95;;;15.68;;
59127;SDS011;44912;52.754;5.994;2024-02-15T06:50:57;24.77;;;16.08;;
59127;SDS011;44912;52.754;5.994;2024-02-15T06:53:23;27.58;;;15.77;;
59127;SDS011;44912;52.754;5.994;2024-02-15T06:55:49;24.77;;;15.27;;
59127;SDS011;44912;52.754;5.994;2024-02-15T06:58:15;25.50;;;15.38;;
59127;SDS011;44912;52.754;5.994;2024-02-15T07:00:45;24.00;;;14.52;;
59127;SDS011;44912;52.754;5.994;2024-02-15T07:03:10;26.55;;;15.55;;
59127;SDS011;44912;52.754;5.994;2024-02-15T07:05:36;25.95;;;15.43;;
59127;SDS011;44912;52.754;5.994;2024-02-15T07:08:07;24.25;;;15.90;;
59127;SDS011;44912;52.754;5.994;2024-02-15T07:10:36;24.95;;;14.52;;
59127;SDS011;44912;52.754;5.994;2024-02-15T07:13:03;22.60;;;14.55;;
59127;SDS011;44912;52.754;5.994;2024-02-15T07:15:29;23.13;;;14.25;;
59127;SDS011;44912;52.754;5.994;2024-02-15T07:17:58;22.63;;;15.52;;
59127;SDS011;44912;52.754;5.994;2024-02-15T07:20:24;24.17;;;14.55;;
59127;SDS011;44912;52.754;5.994;2024-02-15T07:22:50;25.63;;;15.23;;
59127;SDS011;44912;52.754;5.994;2024-02-15T07:25:16;23.20;;;15.35;;
59127;SDS011;44912;52.754;5.994;2024-02-15T07:27:43;23.50;;;14.88;;
59127;SDS011;44912;52.754;5.994;2024-02-15T07:30:08;20.08;;;14.52;;
59127;SDS011;44912;52.754;5.994;2024-02-15T07:32:34;25.15;;;15.45;;
59127;SDS011;44912;52.754;5.994;2024-02-15T07:35:00;24.85;;;15.13;;
59127;SDS011;44912;52.754;5.994;2024-02-15T07:37:26;22.17;;;14.60;;
59127;SDS011;44912;52.754;5.994;2024-02-15T07:39:54;21.83;;;14.38;;
59127;SDS011;44912;52.754;5.994;2024-02-15T07:42:20;25.42;;;13.75;;
59127;SDS011;44912;52.754;5.994;2024-02-15T07:44:45;23.50;;;14.27;;
59127;SDS011;44912;52.754;5.994;2024-02-15T07:47:11;23.58;;;14.40;;
59127;SDS011;44912;52.754;5.994;2024-02-15T07:49:36;20.13;;;14.30;;
59127;SDS011;44912;52.754;5.994;2024-02-15T07:52:02;22.75;;;14.18;;
59127;SDS011;44912;52.754;5.994;2024-02-15T07:54:29;21.83;;;14.13;;
59127;SDS011;44912;52.754;5.994;2024-02-15T07:56:55;24.80;;;14.07;;
59127;SDS011;44912;52.754;5.994;2024-02-15T07:59:23;25.20;;;13.82;;
59127;SDS011;44912;52.754;5.994;2024-02-15T08:01:48;22.33;;;14.43;;
59127;SDS011;44912;52.754;5.994;2024-02-15T08:04:18;19.85;;;13.70;;
59127;SDS011;44912;52.754;5.994;2024-02-15T08:06:45;21.75;;;13.77;;
59127;SDS011;44912;52.754;5.994;2024-02-15T08:09:13;20.60;;;14.23;;
59127;SDS011;44912;52.754;5.994;2024-02-15T08:11:43;18.77;;;13.32;;
59127;SDS011;44912;52.754;5.994;2024-02-15T08:14:09;20.80;;;13.13;;
59127;SDS011;44912;52.754;5.994;2024-02-15T08:16:36;22.83;;;14.48;;
59127;SDS011;44912;52.754;5.994;2024-02-15T08:19:06;19.45;;;13.50;;
59127;SDS011;44912;52.754;5.994;2024-02-15T08:21:32;23.25;;;14.73;;
59127;SDS011;44912;52.754;5.994;2024-02-15T08:24:00;19.33;;;14.75;;
59127;SDS011;44912;52.754;5.994;2024-02-15T08:26:33;19.70;;;13.45;;
59127;SDS011;44912;52.754;5.994;2024-02-15T08:29:02;22.15;;;14.80;;
59127;SDS011;44912;52.754;5.994;2024-02-15T08:31:28;22.77;;;14.13;;
59127;SDS011;44912;52.754;5.994;2024-02-15T08:33:56;22.90;;;14.75;;
59127;SDS011;44912;52.754;5.994;2024-02-15T08:36:22;21.30;;;13.93;;
59127;SDS011;44912;52.754;5.994;2024-02-15T08:38:49;22.00;;;15.55;;
59127;SDS011;44912;52.754;5.994;2024-02-15T08:41:15;21.85;;;14.13;;
59127;SDS011;44912;52.754;5.994;2024-02-15T08:43:43;23.02;;;14.88;;
59127;SDS011;44912;52.754;5.994;2024-02-15T08:46:09;23.77;;;15.80;;
59127;SDS011;44912;52.754;5.994;2024-02-15T08:48:35;20.73;;;14.27;;
59127;SDS011;44912;52.754;5.994;2024-02-15T08:51:01;19.38;;;13.80;;
59127;SDS011;44912;52.754;5.994;2024-02-15T08:53:27;20.73;;;13.90;;
59127;SDS011;44912;52.754;5.994;2024-02-15T08:55:53;20.25;;;14.20;;
59127;SDS011;44912;52.754;5.994;2024-02-15T08:58:19;21.92;;;13.32;;
59127;SDS011;44912;52.754;5.994;2024-02-15T09:00:46;18.70;;;12.68;;
59127;SDS011;44912;52.754;5.994;2024-02-15T09:03:12;18.48;;;12.73;;
59127;SDS011;44912;52.754;5.994;2024-02-15T09:05:40;18.92;;;12.48;;
59127;SDS011;44912;52.754;5.994;2024-02-15T09:08:06;18.27;;;12.80;;
59127;SDS011;44912;52.754;5.994;2024-02-15T09:10:33;17.85;;;12.25;;
59127;SDS011;44912;52.754;5.994;2024-02-15T09:12:58;16.98;;;12.85;;
59127;SDS011;44912;52.754;5.994;2024-02-15T09:15:24;16.33;;;12.15;;
59127;SDS011;44912;52.754;5.994;2024-02-15T09:17:50;16.75;;;11.73;;
59127;SDS011;44912;52.754;5.994;2024-02-15T09:20:16;18.50;;;12.38;;
59127;SDS011;44912;52.754;5.994;2024-02-15T09:25:18;17.88;;;11.20;;
59127;SDS011;44912;52.754;5.994;2024-02-15T09:27:44;16.10;;;11.13;;
59127;SDS011;44912;52.754;5.994;2024-02-15T09:30:10;17.25;;;11.75;;
59127;SDS011;44912;52.754;5.994;2024-02-15T09:32:37;14.27;;;10.85;;
59127;SDS011;44912;52.754;5.994;2024-02-15T09:35:05;15.70;;;10.80;;
59127;SDS011;44912;52.754;5.994;2024-02-15T09:37:38;14.23;;;10.52;;
59127;SDS011;44912;52.754;5.994;2024-02-15T09:40:10;15.38;;;10.95;;
59127;SDS011;44912;52.754;5.994;2024-02-15T09:42:37;15.45;;;10.45;;
59127;SDS011;44912;52.754;5.994;2024-02-15T09:45:04;13.15;;;9.75;;
59127;SDS011;44912;52.754;5.994;2024-02-15T09:47:34;13.07;;;9.35;;
59127;SDS011;44912;52.754;5.994;2024-02-15T09:50:06;13.27;;;9.00;;
59127;SDS011;44912;52.754;5.994;2024-02-15T09:52:33;12.65;;;9.38;;
59127;SDS011;44912;52.754;5.994;2024-02-15T09:55:04;15.10;;;8.93;;
59127;SDS011;44912;52.754;5.994;2024-02-15T09:57:30;11.07;;;8.38;;
59127;SDS011;44912;52.754;5.994;2024-02-15T10:00:00;10.90;;;8.13;;
59127;SDS011;44912;52.754;5.994;2024-02-15T10:02:26;12.50;;;8.43;;
59127;SDS011;44912;52.754;5.994;2024-02-15T10:04:52;9.77;;;7.70;;
59127;SDS011;44912;52.754;5.994;2024-02-15T10:07:22;12.50;;;8.32;;
59127;SDS011;44912;52.754;5.994;2024-02-15T10:09:52;9.60;;;7.03;;
59127;SDS011;44912;52.754;5.994;2024-02-15T10:12:18;10.20;;;7.07;;
59127;SDS011;44912;52.754;5.994;2024-02-15T10:14:49;10.02;;;6.88;;
59127;SDS011;44912;52.754;5.994;2024-02-15T10:17:17;11.00;;;6.80;;
59127;SDS011;44912;52.754;5.994;2024-02-15T10:19:44;10.13;;;6.47;;
59127;SDS011;44912;52.754;5.994;2024-02-15T10:22:27;8.45;;;6.35;;
59127;SDS011;44912;52.754;5.994;2024-02-15T10:24:53;11.23;;;6.32;;
59127;SDS011;44912;52.754;5.994;2024-02-15T10:27:36;9.38;;;6.03;;
59127;SDS011;44912;52.754;5.994;2024-02-15T10:30:16;10.13;;;6.55;;
59127;SDS011;44912;52.754;5.994;2024-02-15T10:32:43;9.60;;;5.90;;
59127;SDS011;44912;52.754;5.994;2024-02-15T10:35:09;9.88;;;6.45;;
59127;SDS011;44912;52.754;5.994;2024-02-15T10:37:40;9.57;;;6.40;;
59127;SDS011;44912;52.754;5.994;2024-02-15T10:40:07;8.20;;;5.85;;
59127;SDS011;44912;52.754;5.994;2024-02-15T10:42:33;10.35;;;6.60;;
59127;SDS011;44912;52.754;5.994;2024-02-15T10:45:04;8.60;;;5.90;;
59127;SDS011;44912;52.754;5.994;2024-02-15T10:47:33;8.40;;;5.72;;
59127;SDS011;44912;52.754;5.994;2024-02-15T10:50:02;9.23;;;5.63;;
59127;SDS011;44912;52.754;5.994;2024-02-15T10:52:29;8.85;;;6.00;;
59127;SDS011;44912;52.754;5.994;2024-02-15T10:55:02;9.65;;;5.93;;
59127;SDS011;44912;52.754;5.994;2024-02-15T10:57:31;7.90;;;5.32;;
59127;SDS011;44912;52.754;5.994;2024-02-15T10:59:58;8.05;;;5.53;;
59127;SDS011;44912;52.754;5.994;2024-02-15T11:02:49;8.50;;;5.63;;
59127;SDS011;44912;52.754;5.994;2024-02-15T11:05:19;8.32;;;6.03;;
59127;SDS011;44912;52.754;5.994;2024-02-15T11:07:48;8.90;;;6.00;;
59127;SDS011;44912;52.754;5.994;2024-02-15T11:10:14;9.85;;;6.03;;
59127;SDS011;44912;52.754;5.994;2024-02-15T11:12:42;9.88;;;6.13;;
59127;SDS011;44912;52.754;5.994;2024-02-15T11:15:09;9.20;;;6.53;;
59127;SDS011;44912;52.754;5.994;2024-02-15T11:20:02;9.48;;;6.85;;
59127;SDS011;44912;52.754;5.994;2024-02-15T11:22:34;10.35;;;6.82;;
59127;SDS011;44912;52.754;5.994;2024-02-15T11:25:02;10.95;;;7.13;;
59127;SDS011;44912;52.754;5.994;2024-02-15T11:27:36;12.85;;;7.53;;
59127;SDS011;44912;52.754;5.994;2024-02-15T11:30:03;12.40;;;7.95;;
59127;SDS011;44912;52.754;5.994;2024-02-15T11:32:48;12.73;;;8.10;;
59127;SDS011;44912;52.754;5.994;2024-02-15T11:40:27;13.23;;;9.07;;
59127;SDS011;44912;52.754;5.994;2024-02-15T11:42:58;12.77;;;8.93;;
59127;SDS011;44912;52.754;5.994;2024-02-15T11:45:27;13.82;;;8.82;;
59127;SDS011;44912;52.754;5.994;2024-02-15T11:47:59;13.88;;;8.93;;
59127;SDS011;44912;52.754;5.994;2024-02-15T11:50:27;14.32;;;9.18;;
59127;SDS011;44912;52.754;5.994;2024-02-15T11:53:01;14.25;;;9.20;;
59127;SDS011;44912;52.754;5.994;2024-02-15T11:55:31;15.77;;;9.50;;
59127;SDS011;44912;52.754;5.994;2024-02-15T11:58:01;14.25;;;8.90;;
59127;SDS011;44912;52.754;5.994;2024-02-15T12:00:37;14.60;;;9.15;;
59127;SDS011;44912;52.754;5.994;2024-02-15T12:03:22;16.33;;;8.80;;
59127;SDS011;44912;52.754;5.994;2024-02-15T12:06:07;14.05;;;9.48;;
59127;SDS011;44912;52.754;5.994;2024-02-15T12:08:52;15.20;;;9.50;;
59127;SDS011;44912;52.754;5.994;2024-02-15T12:11:37;13.30;;;9.07;;
59127;SDS011;44912;52.754;5.994;2024-02-15T12:14:22;16.65;;;9.50;;
59127;SDS011;44912;52.754;5.994;2024-02-15T12:17:07;13.13;;;8.32;;
59127;SDS011;44912;52.754;5.994;2024-02-15T12:19:53;16.17;;;9.23;;
59127;SDS011;44912;52.754;5.994;2024-02-15T12:22:25;13.23;;;9.02;;
59127;SDS011;44912;52.754;5.994;2024-02-15T12:24:59;13.77;;;8.55;;
59127;SDS011;44912;52.754;5.994;2024-02-15T12:27:25;14.02;;;8.60;;
59127;SDS011;44912;52.754;5.994;2024-02-15T12:29:58;13.30;;;8.43;;
59127;SDS011;44912;52.754;5.994;2024-02-15T12:32:25;12.63;;;8.10;;
59127;SDS011;44912;52.754;5.994;2024-02-15T12:34:52;12.75;;;8.60;;
59127;SDS011;44912;52.754;5.994;2024-02-15T12:37:19;14.70;;;8.50;;
59127;SDS011;44912;52.754;5.994;2024-02-15T12:39:49;12.75;;;9.10;;
59127;SDS011;44912;52.754;5.994;2024-02-15T12:42:18;13.75;;;8.68;;
59127;SDS011;44912;52.754;5.994;2024-02-15T12:44:45;15.02;;;8.77;;
59127;SDS011;44912;52.754;5.994;2024-02-15T12:47:17;14.13;;;8.77;;
59127;SDS011;44912;52.754;5.994;2024-02-15T12:49:47;14.10;;;9.35;;
59127;SDS011;44912;52.754;5.994;2024-02-15T12:55:07;14.18;;;8.60;;
59127;SDS011;44912;52.754;5.994;2024-02-15T12:57:36;14.23;;;8.95;;
59127;SDS011;44912;52.754;5.994;2024-02-15T13:00:02;15.18;;;8.63;;
59127;SDS011;44912;52.754;5.994;2024-02-15T13:02:36;17.52;;;9.20;;
59127;SDS011;44912;52.754;5.994;2024-02-15T13:05:05;15.75;;;8.77;;
59127;SDS011;44912;52.754;5.994;2024-02-15T13:07:33;15.27;;;8.90;;
59127;SDS011;44912;52.754;5.994;2024-02-15T13:10:00;15.90;;;8.77;;
59127;SDS011;44912;52.754;5.994;2024-02-15T13:12:26;15.45;;;9.30;;
59127;SDS011;44912;52.754;5.994;2024-02-15T13:14:53;16.52;;;9.23;;
59127;SDS011;44912;52.754;5.994;2024-02-15T13:17:19;14.32;;;8.45;;
59127;SDS011;44912;52.754;5.994;2024-02-15T13:19:45;14.52;;;9.40;;
59127;SDS011;44912;52.754;5.994;2024-02-15T13:22:14;17.65;;;8.38;;
59127;SDS011;44912;52.754;5.994;2024-02-15T13:24:41;17.40;;;9.40;;
59127;SDS011;44912;52.754;5.994;2024-02-15T13:27:07;18.08;;;9.55;;
59127;SDS011;44912;52.754;5.994;2024-02-15T13:29:37;15.48;;;9.27;;
59127;SDS011;44912;52.754;5.994;2024-02-15T13:32:06;19.25;;;10.10;;
59127;SDS011;44912;52.754;5.994;2024-02-15T13:34:32;17.70;;;9.57;;
59127;SDS011;44912;52.754;5.994;2024-02-15T13:36:58;18.98;;;9.98;;
59127;SDS011;44912;52.754;5.994;2024-02-15T13:39:26;17.88;;;9.73;;
59127;SDS011;44912;52.754;5.994;2024-02-15T13:41:58;17.08;;;9.43;;
59127;SDS011;44912;52.754;5.994;2024-02-15T13:44:26;16.17;;;10.07;;
59127;SDS011;44912;52.754;5.994;2024-02-15T13:46:52;17.30;;;10.55;;
59127;SDS011;44912;52.754;5.994;2024-02-15T13:49:21;19.73;;;9.80;;
59127;SDS011;44912;52.754;5.994;2024-02-15T13:51:47;19.27;;;10.32;;
59127;SDS011;44912;52.754;5.994;2024-02-15T13:54:12;17.85;;;10.32;;
59127;SDS011;44912;52.754;5.994;2024-02-15T13:56:38;17.17;;;10.32;;
59127;SDS011;44912;52.754;5.994;2024-02-15T13:59:05;18.20;;;10.23;;
59127;SDS011;44912;52.754;5.994;2024-02-15T14:01:31;17.48;;;10.00;;
59127;SDS011;44912;52.754;5.994;2024-02-15T14:03:56;16.65;;;10.00;;
59127;SDS011;44912;52.754;5.994;2024-02-15T14:06:22;18.35;;;9.68;;
59127;SDS011;44912;52.754;5.994;2024-02-15T14:08:48;15.52;;;9.70;;
59127;SDS011;44912;52.754;5.994;2024-02-15T14:11:15;15.18;;;9.50;;
59127;SDS011;44912;52.754;5.994;2024-02-15T14:13:42;14.75;;;9.52;;
59127;SDS011;44912;52.754;5.994;2024-02-15T14:16:08;20.25;;;9.77;;
59127;SDS011;44912;52.754;5.994;2024-02-15T14:18:33;16.25;;;8.95;;
59127;SDS011;44912;52.754;5.994;2024-02-15T14:21:00;17.70;;;9.68;;
59127;SDS011;44912;52.754;5.994;2024-02-15T14:23:25;15.82;;;10.15;;
59127;SDS011;44912;52.754;5.994;2024-02-15T14:25:52;18.25;;;9.40;;
59127;SDS011;44912;52.754;5.994;2024-02-15T14:28:19;14.73;;;9.45;;
59127;SDS011;44912;52.754;5.994;2024-02-15T14:30:44;14.40;;;9.85;;
59127;SDS011;44912;52.754;5.994;2024-02-15T14:33:28;16.07;;;9.63;;
59127;SDS011;44912;52.754;5.994;2024-02-15T14:35:55;17.77;;;9.65;;
59127;SDS011;44912;52.754;5.994;2024-02-15T14:38:21;16.33;;;9.50;;
59127;SDS011;44912;52.754;5.994;2024-02-15T14:40:50;14.65;;;9.57;;
59127;SDS011;44912;52.754;5.994;2024-02-15T14:43:20;16.92;;;9.45;;
59127;SDS011;44912;52.754;5.994;2024-02-15T14:45:46;15.02;;;9.45;;
59127;SDS011;44912;52.754;5.994;2024-02-15T14:48:13;14.73;;;9.07;;